Airfield :







YOU CAN JOIN US ON...

 
LOGIN :

Register | Disclaimer

   EN    FR    IT 

 









Legend :    VFR   Marginal VFR   IFR   Intensive IFR   Very Intensive IFR
Visi :
Ceiling :
>= 8 km
>= 3000ft
5 to 8 km
1000 to 3000 ft
1500m to 5 km
500 to 1000 ft
800 to 1500m
200 to 500 ft
< 800m
< 200 ft
Symbols :   Thunderstorms  Fog  Heavy snow  Heavy precipitations  Wind > 20 kt






- Airport Elevation : 1709 ft
- IATA code : YKL


CYKL - Schefferville

CURRENT METAR :
  • 221235Z AUTO VRB02KT 3/8SM FG VV003 00/00 A2994 RMK SLP168

EXPIRED METARs :
  • 221229Z AUTO 00000KT 3/8SM FZFG VV003 M00/M00 A2993 RMK SLP167
  • 221201Z AUTO 06003KT 040V120 1/4SM FZFG VV003 M00/M00 A2993 RMK SLP167
  • 221128Z AUTO 00000KT 1/4SM FZFG VV002 M00/M00 A2993 RMK SLP166
  • 221112Z AUTO 07003KT 020V090 1/2SM FZFG VV003 M00/M00 A2993 RMK SLP167
  • 221100Z AUTO 07003KT 1/2SM FZFG VV003 M00/M00 A2993 RMK SLP164
  • 221045Z AUTO 00000KT 1/2SM FZFG VV003 M00/M00 A2993 RMK SLP166
  • 221035Z AUTO 07004KT 040V120 3/4SM BR VV003 M00/M00 A2993 RMK SLP166
  • 221024Z AUTO 06004KT 030V090 1SM BR VV003 M00/M00 A2993 RMK SLP166
  • 221006Z AUTO 01004KT 350V090 5/8SM BR VV003 M00/M00 A2993 RMK SLP167

TAF AMD TAF CYKL
Valid from the 22 at 12:00 until the 22 at 20:00 UTC


221215Z 2212/2220 VRB03KT 6SM BR SCT002
TEMPO 2212/2213 1/2SM FZFG VV002
FM221300 11008KT P6SM SCT008
TEMPO 2213/2215 2SM BR BKN008
FM221500 12010KT P6SM BKN015 BKN120 RMK FCST BASED ON AUTO OBS. NXT FCST BY 221400Z
CZUL FIR / North America



MET'MAP, your aeronautical weather chart ! - Copyright ORBIFLY December 2007 - Disclaimer

ORBIFLY MET'MAP TEAM :

Programming & Development : Alexandra Zaïnal
Concept & original design : Baudouin d'Aumeries
Assistance for programming : Marc-Olivier Méhu
Technical & hardware support : Manuel Goepfert

Contact : metmap@orbifly.com




SOURCES & CREDITS :

   NOAA